Tiempo atmosférico en la estación meteorológica de Gaucín, Málaga (545 m.)



Fecha
DESCASC
Temp. máxima en grados centígrados (hora)
DESCASC
Temp. mínima en grados centígrados (hora)
DESCASC
Temp. media en grados centígrados
DESCASC
Racha de viento máxima en m/sg (hora)
DESCASC
Velocidad máxima media en intervalos de 10 minutos(hora)
DESCASC
Precipitaciones diarias en mm
DESCASC
Precipitaciones de 00:00 a 06:00 en mm
DESCASC
Precipitaciones de 06:00 a 12:00 en mm
DESCASC
Precipitaciones de 12:00 a 18:00 en mm
DESCASC
Precipitaciones de 18:00 a 24:00 en mm
DESCASC
23-06-2019 25.4 (18:00) 15.6 (08:10) 20.5 8.06 (16:00) 4.44 (15:50) 0 0 0 0 0
22-06-2019 26.9 (16:20) 16.8 (23:40) 21.8 7.78 (19:00) 4.72 (19:10) 0 0 0 0 0
21-06-2019 27.1 (15:40) 13.4 (05:00) 20.3 11.11 (00:40) 6.39 (00:10) 0 0 0 0 0
20-06-2019 25.1 (17:10) 13.4 (00:00) 19.3 11.39 (23:59) 6.67 (00:30) 0 0 0 0 0
19-06-2019 -- (--) -- (--) -- -- (--) -- (--) -- 0 0 -- 0
18-06-2019 27.8 (16:40) 15 (00:00) 21.4 -- (--) -- (--) 0 0 0 0 0
17-06-2019 25.3 (16:20) 14.1 (00:00) 19.7 7.78 (14:30) 5.28 (14:30) 0 0 0 0 0
16-06-2019 26.1 (16:10) 15 (00:00) 20.6 6.39 (14:50) 3.89 (18:30) 0 0 0 0 0
15-06-2019 28.6 (17:40) 9.3 (00:00) 19 10.83 (01:30) 5.83 (01:50) 0 0 0 0 0
14-06-2019 20.2 (17:00) 12 (00:00) 16.1 10.56 (23:50) 5.56 (23:59) 0 0 0 0 0
13-06-2019 21.7 (16:40) 13.8 (00:00) 17.8 8.33 (17:50) 5.56 (18:20) 0 0 0 0 0
12-06-2019 23.5 (16:10) 14 (00:00) 18.8 6.94 (15:20) 4.17 (18:50) 0 0 0 0 0
11-06-2019 23.9 (17:50) 12 (00:00) 17.9 10.83 (16:40) 5.56 (01:40) 0 0 0 0 0
10-06-2019 24 (17:00) 12.6 (00:00) 18.3 10 (19:50) 4.44 (21:40) 0 0 0 0 0
09-06-2019 24.4 (18:10) 14.4 (00:00) 19.4 11.11 (23:20) 5.83 (23:20) 0 0 0 0 0
08-06-2019 25.4 (16:10) 15.1 (00:00) 20.3 6.67 (14:50) 3.61 (04:20) 0 0 0 0 0
07-06-2019 24.8 (18:10) 12.6 (00:00) 18.7 11.11 (10:50) 4.72 (01:10) 0 0 0 0 0
06-06-2019 25.1 (15:50) 10.1 (00:00) 17.6 10 (23:30) 4.72 (23:30) 0 0 0 0 0
05-06-2019 20.8 (19:00) 11.9 (00:00) 16.3 11.39 (07:50) 6.39 (08:00) 0 0 0 0 0
04-06-2019 28.5 (16:20) 15.6 (00:00) 22.1 9.17 (18:50) 4.17 (15:00) 0 0 0 0 0
03-06-2019 26.5 (16:20) 16 (00:00) 21.3 6.39 (16:50) 3.89 (16:40) 0 0 0 0 0
02-06-2019 26.2 (17:50) 16.3 (00:00) 21.3 7.5 (15:50) 4.72 (15:20) 0 0 0 0 0
01-06-2019 25.8 (18:10) 15.5 (00:00) 20.6 7.5 (16:20) 3.61 (01:50) 0 0 0 0 0
31-05-2019 24.6 (17:30) 15.4 (00:00) 20 11.67 (17:00) 4.17 (01:40) 0 0 0 0 0
30-05-2019 22.2 (16:10) 14.4 (00:00) 18.3 10 (18:40) 3.89 (14:50) 0 0 0 0 0
29-05-2019 24.5 (16:00) 15.2 (00:00) 19.8 8.33 (14:30) 2.78 (14:30) 0 0 0 0 0
28-05-2019 30.6 (14:10) 18.2 (00:00) 24.4 8.89 (15:40) 4.44 (16:30) 0 0 0 0 0

Gráficas

Temp. máximas Temp. mínimas Temp. medias Precipitaciones Rachas de viento máximas Velocidades máximas media en intervalos de 10 minutos

Datos horarios

Fecha y hora oficial Temperatura (ºC) Velocidad del viento (km/h) Dirección del viento Racha (km/h) Dirección de racha Precipitación (mm) Presión (hPa) Tendencia (hPa) Humedad (%)
2019-06-26 23:00:00 -- -- -- -- -- -- -- -- --
2019-06-26 22:00:00 20.3 8 Sudoeste 16 Sudoeste 0 -- -- 70
2019-06-26 21:00:00 22.2 12 Sudoeste 19 Sudoeste 0 -- -- 63
2019-06-26 20:00:00 24.6 12 Sudoeste 23 Sudoeste 0 -- -- 54
2019-06-26 19:00:00 26.2 12 Sudoeste 24 Sudoeste 0 -- -- 48
2019-06-26 18:00:00 26.7 13 Sudoeste 27 Sudoeste 0 -- -- 48
2019-06-26 17:00:00 26.7 17 Sudoeste 29 Sudoeste 0 -- -- 48
2019-06-26 16:00:00 26.1 14 Sudoeste 32 Sudoeste 0 -- -- 50
2019-06-26 15:00:00 25 17 Sudoeste 32 Sudoeste 0 -- -- 54
2019-06-26 14:00:00 24.6 19 Sudoeste 30 Sudoeste 0 -- -- 54
2019-06-26 13:00:00 23.5 17 Sudoeste 29 Oeste 0 -- -- 53
2019-06-26 12:00:00 23 13 Sudoeste 24 Oeste 0 -- -- 59
2019-06-26 11:00:00 21.5 9 Sudoeste 18 Sudoeste 0 -- -- 67
2019-06-26 10:00:00 20.3 7 Sudoeste 13 Sudoeste 0 -- -- 69
2019-06-26 09:00:00 19.4 4 Sur 6 Sudoeste 0 -- -- 71
2019-06-26 08:00:00 17.8 2 Sur 4 Norte 0 -- -- 76
2019-06-26 07:00:00 17.6 3 Nordeste 8 Norte 0 -- -- 77
2019-06-26 06:00:00 17.6 0 Calma 9 Nordeste 0 -- -- 75
2019-06-26 05:00:00 17.6 6 Nordeste 8 Nordeste 0 -- -- 75
2019-06-26 04:00:00 17.6 0 Calma 4 Noroeste 0 -- -- 76
2019-06-26 03:00:00 17.7 2 Sudoeste 11 Oeste 0 -- -- 76
2019-06-26 02:00:00 18.4 9 Sudoeste 12 Sudoeste 0 -- -- 74
2019-06-26 01:00:00 19.7 3 Sur 5 Sur 0 -- -- 66
2019-06-26 00:00:00 20.3 0 Calma 5 Sur 0 -- -- 54
2019-06-25 23:00:00 21.6 4 Sur 8 Sudoeste 0 -- -- 53
2019-06-25 22:00:00 22.3 3 Sur 8 Sudoeste 0 -- -- 52
2019-06-25 21:00:00 24.3 5 Sur 16 Sudoeste 0 -- -- 48
2019-06-25 20:00:00 25.9 9 Sudoeste 22 Sudoeste 0 -- -- 43
2019-06-25 19:00:00 27.2 14 Sudoeste 24 Sudoeste 0 -- -- 42
2019-06-25 18:00:00 28.4 15 Sudoeste 25 Sudoeste 0 -- -- 43
2019-06-25 17:00:00 28.8 14 Sudoeste 28 Sudoeste 0 -- -- 43
2019-06-25 16:00:00 29.2 14 Sudoeste 27 Sudoeste 0 -- -- 42
2019-06-25 15:00:00 28.7 12 Sudoeste 26 Sudoeste 0 -- -- 44
2019-06-25 14:00:00 28 12 Sudoeste 23 Sudoeste 0 -- -- 43
2019-06-25 13:00:00 26.6 11 Sudoeste 22 Sudoeste 0 -- -- 47
2019-06-25 12:00:00 24.8 7 Sudoeste 19 Sur 0 -- -- 57
2019-06-25 11:00:00 23.7 3 Sur 8 Sur 0 -- -- 62
2019-06-25 10:00:00 22.2 3 Sudoeste 4 Sudoeste 0 -- -- 64
2019-06-25 09:00:00 19.4 0 Calma 12 Nordeste 0 -- -- 71
2019-06-25 08:00:00 16.9 10 Nordeste 16 Norte 0 -- -- 83
2019-06-25 07:00:00 16.3 13 Norte 20 Norte 0 -- -- 85
2019-06-25 06:00:00 16.9 11 Norte 18 Norte 0 -- -- 83
2019-06-25 05:00:00 17.4 14 Norte 19 Norte 0 -- -- 82
2019-06-25 04:00:00 17.8 12 Norte 17 Norte 0 -- -- 80
2019-06-25 03:00:00 18.3 9 Norte 18 Norte 0 -- -- 75
2019-06-25 02:00:00 18.4 10 Norte 17 Norte 0 -- -- 80
2019-06-25 01:00:00 19.5 10 Norte 13 Norte 0 -- -- 77
2019-06-25 00:00:00 19.7 7 Norte 14 Norte 0 -- -- 76
2019-06-24 23:00:00 20.6 8 Norte 13 Norte 0 -- -- 73
2019-06-24 22:00:00 21.7 8 Norte 13 Norte 0 -- -- 68
2019-06-24 21:00:00 23.1 4 Oeste 13 Sudoeste 0 -- -- 59
2019-06-24 20:00:00 24.8 8 Sudoeste 17 Sudoeste 0 -- -- 55
2019-06-24 19:00:00 26.4 10 Sudoeste 20 Sudoeste 0 -- -- 51
2019-06-24 18:00:00 27.1 12 Sudoeste 27 Sudoeste 0 -- -- 50
2019-06-24 17:00:00 27.4 15 Sudoeste 29 Sudoeste 0 -- -- 50
2019-06-24 16:00:00 27.5 14 Sudoeste 29 Sudoeste 0 -- -- 48
2019-06-24 15:00:00 27 11 Sudoeste 25 Sudoeste 0 -- -- 50
2019-06-24 14:00:00 25.7 12 Sudoeste 21 Sudoeste 0 -- -- 51
2019-06-24 13:00:00 24.4 9 Sudoeste 20 Sudoeste 0 -- -- 56
2019-06-24 12:00:00 22.5 9 Sudoeste 17 Sudoeste 0 -- -- 62
2019-06-24 11:00:00 21.2 5 Sudoeste 12 Sudoeste 0 -- -- 65
2019-06-24 10:00:00 19.7 4 Sudoeste 8 Sudoeste 0 -- -- 71
2019-06-24 09:00:00 17.3 5 Sur 8 Sur 0 -- -- 83
2019-06-24 08:00:00 15.8 4 Sur 8 Sur 0 -- -- 89
2019-06-24 07:00:00 15.9 3 Sudoeste 7 Sur 0 -- -- 85
2019-06-24 06:00:00 17.2 5 Nordeste 11 Nordeste 0 -- -- 64
2019-06-24 05:00:00 16.9 6 Nordeste 10 Nordeste 0 -- -- 69
2019-06-24 04:00:00 16.2 0 Calma 10 Nordeste 0 -- -- 81
2019-06-24 03:00:00 15.7 0 Calma 5 Sur 0 -- -- 89
2019-06-24 02:00:00 16.6 0 Calma 8 Sur 0 -- -- 84
2019-06-24 01:00:00 17.6 0 Calma 7 Este 0 -- -- 79
2019-06-24 00:00:00 17.6 2 Este 11 Nordeste 0 -- -- 81
2019-06-23 23:00:00 18.9 2 Sudeste 8 Nordeste 0 -- -- 77
2019-06-23 22:00:00 19.8 6 Norte 13 Norte 0 -- -- 74
2019-06-23 21:00:00 21.5 3 Sudoeste 11 Sur 0 -- -- 67
2019-06-23 20:00:00 23.1 10 Sudoeste 18 Sudoeste 0 -- -- 63
2019-06-23 19:00:00 24 12 Sudoeste 20 Sudoeste 0 -- -- 59
2019-06-23 18:00:00 25.4 11 Sudoeste 20 Sudoeste 0 -- -- 53
2019-06-23 17:00:00 25.2 13 Sudoeste 26 Sudoeste 0 -- -- 55
2019-06-23 16:00:00 24.7 15 Sudoeste 29 Sudoeste 0 -- -- 56
2019-06-23 15:00:00 24.7 14 Sudoeste 24 Sudoeste 0 -- -- 58
2019-06-23 14:00:00 23.9 11 Sudoeste 22 Sudoeste 0 -- -- 61
2019-06-23 13:00:00 22.5 9 Sudoeste 19 Sudoeste 0 -- -- 68
2019-06-23 12:00:00 20.2 10 Sudoeste 18 Sudoeste 0 -- -- 78
2019-06-23 11:00:00 18.7 7 Sudoeste 14 Sudoeste 0 -- -- 82
2019-06-23 10:00:00 16.8 5 Sudoeste 13 Sudoeste 0 -- -- 91
2019-06-23 09:00:00 16 7 Sudoeste 12 Sudoeste 0 -- -- 93
2019-06-23 08:00:00 15.7 5 Sudoeste 8 Sudoeste 0 -- -- 91
2019-06-23 07:00:00 16.5 0 Calma 5 Este 0 -- -- 81
2019-06-23 06:00:00 16.3 0 Calma 5 Sur 0 -- -- 84
2019-06-23 05:00:00 16.6 0 Calma 5 Sudoeste 0 -- -- 82
2019-06-23 04:00:00 16.8 0 Calma 4 Este 0 -- -- 81
2019-06-23 03:00:00 16.7 0 Calma 6 Nordeste 0 -- -- 85
2019-06-23 02:00:00 16.6 0 Calma 5 Sur 0 -- -- 88
2019-06-23 01:00:00 16.9 0 Calma 9 Norte 0 -- -- 85
2019-06-23 00:00:00 17 4 Nordeste 13 Norte 0 -- -- 87
2019-06-22 23:00:00 17.4 9 Norte 14 Norte 0 -- -- 85
2019-06-22 22:00:00 18.6 10 Norte 15 Norte 0 -- -- 79
2019-06-22 21:00:00 20.3 3 Sudoeste 16 Sudoeste 0 -- -- 72
2019-06-22 20:00:00 22.3 11 Sudoeste 26 Sudoeste 0 -- -- 66
2019-06-22 19:00:00 24.4 16 Sudoeste 28 Sudoeste 0 -- -- 59
2019-06-22 18:00:00 26.4 6 Sur 18 Sur 0 -- -- 55
2019-06-22 17:00:00 26.4 9 Sudoeste 24 Sudoeste 0 -- -- 55
2019-06-22 16:00:00 26.3 15 Sudoeste 23 Sudoeste 0 -- -- 56
2019-06-22 15:00:00 26.2 13 Sudoeste 22 Sur 0 -- -- 55
2019-06-22 14:00:00 25.7 7 Sudoeste 18 Sudoeste 0 -- -- 54
2019-06-22 13:00:00 25.1 10 Sudoeste 21 Sudoeste 0 -- -- 54
2019-06-22 12:00:00 23.8 7 Sudoeste 18 Sudoeste 0 -- -- 52
2019-06-22 11:00:00 22.1 8 Sudoeste 13 Sudoeste 0 -- -- 55
2019-06-22 10:00:00 21.2 3 Sur 8 Noroeste 0 -- -- 48
2019-06-22 09:00:00 19.6 2 Sur 14 Nordeste 0 -- -- 54
2019-06-22 08:00:00 17.5 3 Oeste 14 Sur 0 -- -- 59
2019-06-22 07:00:00 17.8 6 Nordeste 13 Este 0 -- -- 53
2019-06-22 06:00:00 17.8 3 Sur 9 Nordeste 0 -- -- 49
2019-06-22 05:00:00 18.1 3 Este 15 Nordeste 0 -- -- 49
2019-06-22 04:00:00 18.1 7 Nordeste 14 Nordeste 0 -- -- 50
2019-06-22 03:00:00 18.3 12 Nordeste 15 Nordeste 0 -- -- 55
2019-06-22 02:00:00 19.1 11 Nordeste 16 Norte 0 -- -- 51
2019-06-22 01:00:00 19.3 10 Norte 20 Norte 0 -- -- 50
2019-06-22 00:00:00 19.3 10 Norte 17 Nordeste 0 -- -- 53
2019-06-21 23:00:00 19.8 6 Norte 18 Norte 0 -- -- 56
2019-06-21 22:00:00 20.9 8 Norte 26 Norte 0 -- -- 54
2019-06-21 21:00:00 22.9 13 Norte 24 Norte 0 -- -- 48
2019-06-21 20:00:00 24.6 11 Norte 26 Norte 0 -- -- 42
2019-06-21 19:00:00 26 11 Noroeste 30 Norte 0 -- -- 37
2019-06-21 18:00:00 26.8 11 Noroeste 29 Oeste 0 -- -- 35
2019-06-21 17:00:00 27 12 Norte 29 Noroeste 0 -- -- 33
2019-06-21 16:00:00 27 10 Norte 29 Nordeste 0 -- -- 31
2019-06-21 15:00:00 26.5 10 Norte 26 Norte 0 -- -- 34
2019-06-21 14:00:00 25.5 12 Norte 26 Norte 0 -- -- 37
2019-06-21 13:00:00 24.1 8 Norte 30 Norte 0 -- -- 40
2019-06-21 12:00:00 22.3 13 Norte 37 Nordeste 0 -- -- 43
2019-06-21 11:00:00 21.1 17 Norte 34 Norte 0 -- -- 49
2019-06-21 10:00:00 20 12 Norte 33 Norte 0 -- -- 54
2019-06-21 09:00:00 17 15 Norte 30 Norte 0 -- -- 65
2019-06-21 08:00:00 13.7 12 Nordeste 17 Nordeste 0 -- -- 77
2019-06-21 07:00:00 13.9 7 Nordeste 17 Nordeste 0 -- -- 77
2019-06-21 06:00:00 13.6 10 Nordeste 20 Norte 0 -- -- 79
2019-06-21 05:00:00 13.4 12 Nordeste 23 Norte 0 -- -- 80
2019-06-21 04:00:00 14.2 13 Nordeste 21 Norte 0 -- -- 76
2019-06-21 03:00:00 16.1 11 Norte 34 Norte 0 -- -- 67
2019-06-21 02:00:00 17.1 10 Norte 32 Norte 0 -- -- 63
2019-06-21 01:00:00 16.8 14 Norte 40 Norte 0 -- -- 64
2019-06-21 00:00:00 16.2 21 Norte 41 Norte 0 -- -- 73
2019-06-20 23:00:00 16.7 17 Norte 29 Norte 0 -- -- 72
2019-06-20 22:00:00 17.8 13 Norte 30 Nordeste 0 -- -- 69
2019-06-20 21:00:00 19.7 14 Norte 26 Norte 0 -- -- 57
2019-06-20 20:00:00 21.2 8 Norte 27 Norte 0 -- -- 51
2019-06-20 19:00:00 22.4 10 Noroeste 27 Noroeste 0 -- -- 48
2019-06-20 18:00:00 24.2 9 Oeste 23 Noroeste 0 -- -- 46
2019-06-20 17:00:00 24.8 8 Sudoeste 28 Noroeste 0 -- -- 45
2019-06-20 16:00:00 24.1 11 Oeste 31 Oeste 0 -- -- 45
2019-06-20 15:00:00 23.3 11 Norte 30 Sudoeste 0 -- -- 48
2019-06-20 14:00:00 23.4 14 Sudoeste 28 Sudoeste 0 -- -- 48
2019-06-20 13:00:00 22.3 7 Sudoeste 30 Nordeste 0 -- -- 53
2019-06-20 12:00:00 20.6 12 Norte 34 Norte 0 -- -- 59
2019-06-20 11:00:00 20 14 Norte 36 Norte 0 -- -- 60
2019-06-20 10:00:00 19 12 Norte 34 Norte 0 -- -- 63
2019-06-20 09:00:00 16.8 21 Norte 34 Norte 0 -- -- 73
2019-06-20 08:00:00 13.4 11 Norte 25 Norte 0 -- -- 87
2019-06-20 07:00:00 13.8 16 Norte 25 Norte 0 -- -- 86
2019-06-20 06:00:00 14.1 15 Norte 26 Norte 0 -- -- 86
2019-06-20 05:00:00 14.6 14 Norte 32 Norte 0 -- -- 84
2019-06-20 04:00:00 15.6 17 Norte 33 Norte 0 -- -- 77
2019-06-20 03:00:00 16 13 Norte 38 Norte 0 -- -- 74
2019-06-20 02:00:00 16.2 15 Norte 37 Noroeste 0 -- -- 72
2019-06-20 01:00:00 16.2 22 Norte 38 Norte 0 -- -- 77
2019-06-20 00:00:00 16.4 21 Norte 34 Norte 0 -- -- 81
2019-06-19 23:00:00 17.2 12 Norte 31 Norte 0 -- -- 78
2019-06-19 22:00:00 19 14 Norte 30 Norte 0 -- -- 70
2019-06-19 21:00:00 21 15 Norte 30 Nordeste 0 -- -- 62
2019-06-19 20:00:00 23.4 13 Norte 30 Norte 0 -- -- 54
2019-06-19 19:00:00 25.5 10 Norte 29 Norte 0 -- -- 45
2019-06-19 18:00:00 26.5 10 Norte 26 Norte 0 -- -- 41
2019-06-19 17:00:00 -- -- -- -- -- -- -- -- --
2019-06-19 16:00:00 -- -- -- -- -- -- -- -- --
2019-06-19 15:00:00 -- -- -- -- -- -- -- -- --
2019-06-19 14:00:00 -- -- -- -- -- -- -- -- --
2019-06-19 13:00:00 23.2 10 Norte 24 Nordeste 0 -- -- 54
2019-06-19 12:00:00 22.1 7 Noroeste 21 Norte 0 -- -- 57
2019-06-19 11:00:00 20.5 8 Nordeste 26 Nordeste 0 -- -- 60
2019-06-19 10:00:00 18.2 -- -- -- -- -- -- -- --
2019-06-19 09:00:00 15.7 17 Norte 35 Norte 0 -- -- 80
2019-06-19 08:00:00 14 21 Norte 30 Norte 0 -- -- 88
2019-06-19 07:00:00 13.3 14 Norte 28 Norte 0 -- -- 91
2019-06-19 06:00:00 13.4 15 Nordeste 23 Norte 0 -- -- 92
2019-06-19 05:00:00 13.4 14 Nordeste 27 Nordeste 0 -- -- 93
2019-06-19 04:00:00 13.9 12 Nordeste 28 Norte 0 -- -- 89
2019-06-19 03:00:00 14.4 11 Norte 17 Norte 0 -- -- 87
2019-06-19 02:00:00 14.7 -- -- -- -- -- -- -- --
2019-06-19 01:00:00 15 14 Nordeste 20 Norte 0 -- -- 84
2019-06-19 00:00:00 16.5 15 Norte 26 Norte 0 -- -- 77
2019-06-18 23:00:00 17.5 16 Norte 27 Norte 0 -- -- 73
2019-06-18 22:00:00 18.9 -- -- -- -- 0 -- -- --
2019-06-18 21:00:00 20.9 10 Norte 23 Noroeste 0 -- -- 57
2019-06-18 20:00:00 23.8 9 Noroeste 23 Norte 0 -- -- 45
2019-06-18 19:00:00 -- -- -- -- -- -- -- -- --
2019-06-18 18:00:00 26.8 9 Noroeste 27 Sudoeste 0 -- -- 36
2019-06-18 17:00:00 27.6 12 Sudoeste 24 Sudoeste 0 -- -- 28
2019-06-18 16:00:00 26.6 8 Norte 31 Sudoeste 0 -- -- 34
2019-06-18 15:00:00 26 16 Sudoeste 27 Sudoeste 0 -- -- 39
2019-06-18 14:00:00 25.2 8 Sudoeste 22 Sudoeste 0 -- -- 40
2019-06-18 13:00:00 23 10 Sudoeste 22 Sudoeste 0 -- -- 45
2019-06-18 12:00:00 21.3 10 Sudoeste 19 Sudoeste 0 -- -- 52
2019-06-18 11:00:00 20.2 6 Sudoeste 9 Sudoeste 0 -- -- 53
2019-06-18 10:00:00 20.6 3 Sur 5 Sudoeste 0 -- -- 49
2019-06-18 09:00:00 17.8 4 Nordeste 10 Norte 0 -- -- 54
2019-06-18 08:00:00 15.4 6 Norte 9 Norte 0 -- -- 62
2019-06-18 07:00:00 15 0 Calma 4 Sur 0 -- -- 58
2019-06-18 06:00:00 15.1 0 Calma 3 Sur 0 -- -- 59
2019-06-18 05:00:00 15.7 0 Calma 4 Sur 0 -- -- 59
2019-06-18 04:00:00 16 0 Calma 5 Este 0 -- -- 62
2019-06-18 03:00:00 17.6 0 Calma 5 Sudeste 0 -- -- 48
2019-06-18 02:00:00 17.5 0 Calma 5 Sur 0 -- -- 47
2019-06-18 01:00:00 17.1 0 Calma 5 Nordeste 0 -- -- 57
2019-06-18 00:00:00 17.8 0 Calma 5 Nordeste 0 -- -- 57
2019-06-17 23:00:00 18.2 0 Calma 8 Norte 0 -- -- 58
2019-06-17 22:00:00 18.7 7 Norte 10 Norte 0 -- -- 58
2019-06-17 21:00:00 20 4 Sudoeste 15 Sudoeste 0 -- -- 51
2019-06-17 20:00:00 22.1 12 Sudoeste 21 Sudoeste 0 -- -- 47
2019-06-17 19:00:00 22.8 12 Sudoeste 25 Sudoeste 0 -- -- 47
2019-06-17 18:00:00 24.3 15 Sudoeste 27 Sudoeste 0 -- -- 44
2019-06-17 17:00:00 25 17 Sudoeste 28 Sudoeste 0 -- -- 44
2019-06-17 16:00:00 25 17 Sudoeste 27 Sudoeste 0 -- -- 42
2019-06-17 15:00:00 24.5 15 Sudoeste 28 Sudoeste 0 -- -- 44
2019-06-17 14:00:00 23.9 14 Sudoeste 26 Sudoeste 0 -- -- 43
2019-06-17 13:00:00 22.8 10 Sudoeste 21 Sudoeste 0 -- -- 47
2019-06-17 12:00:00 21.1 7 Sudoeste 17 Sur 0 -- -- 58
2019-06-17 11:00:00 19.8 4 Sur 9 Sudoeste 0 -- -- 63
2019-06-17 10:00:00 19.1 4 Sudoeste 6 Sur 0 -- -- 58
2019-06-17 09:00:00 17.6 0 Calma 5 Este 0 -- -- 51
2019-06-17 08:00:00 15.5 2 Noroeste 7 Nordeste 0 -- -- 52
2019-06-17 07:00:00 14.8 3 Nordeste 10 Nordeste 0 -- -- 55
2019-06-17 06:00:00 14.4 5 Nordeste 9 Nordeste 0 -- -- 57
2019-06-17 05:00:00 14.6 0 Calma 5 Sur 0 -- -- 59
2019-06-17 04:00:00 15.8 0 Calma 6 Norte 0 -- -- 52
2019-06-17 03:00:00 16.3 0 Calma 6 Sudeste 0 -- -- 50
2019-06-17 02:00:00 15.7 0 Calma 4 Oeste 0 -- -- 51
2019-06-17 01:00:00 15.7 0 Calma 8 Este 0 -- -- 54
2019-06-17 00:00:00 15 0 Calma 3 Sur 0 -- -- 59
2019-06-16 23:00:00 15.7 3 Nordeste 11 Norte 0 -- -- 55
2019-06-16 22:00:00 17.1 7 Norte 10 Norte 0 -- -- 50
2019-06-16 21:00:00 19.8 4 Sudoeste 13 Sudoeste 0 -- -- 43
2019-06-16 20:00:00 22.5 6 Sudoeste 18 Sudoeste 0 -- -- 37
2019-06-16 19:00:00 24 13 Sudoeste 23 Sudoeste 0 -- -- 34
2019-06-16 18:00:00 26 5 Sudoeste 20 Sur 0 -- -- 30
2019-06-16 17:00:00 25.4 8 Sudeste 21 Sudeste 0 -- -- 32
2019-06-16 16:00:00 25.9 8 Sur 21 Sudoeste 0 -- -- 35
2019-06-16 15:00:00 24.3 7 Sudoeste 23 Sudoeste 0 -- -- 46
2019-06-16 14:00:00 22.7 10 Sudoeste 21 Sudoeste 0 -- -- 49
2019-06-16 13:00:00 20.4 9 Sudoeste 18 Sudoeste 0 -- -- 58
2019-06-16 12:00:00 19.6 8 Sudoeste 13 Oeste 0 -- -- 60
2019-06-16 11:00:00 18 7 Sudoeste 10 Sudoeste 0 -- -- 61
2019-06-16 10:00:00 19.3 3 Sudoeste 5 Sudoeste 0 -- -- 54
2019-06-16 09:00:00 17.7 3 Sur 11 Nordeste 0 -- -- 53
2019-06-16 08:00:00 15.6 8 Nordeste 14 Nordeste 0 -- -- 51
2019-06-16 07:00:00 16.7 0 Calma 6 Sur 0 -- -- 53
2019-06-16 06:00:00 16.5 2 Nordeste 9 Nordeste 0 -- -- 47
2019-06-16 05:00:00 17.1 3 Sur 13 Nordeste 0 -- -- 45
2019-06-16 04:00:00 18 7 Nordeste 15 Nordeste 0 -- -- 44
2019-06-16 03:00:00 17.7 12 Nordeste 17 Nordeste 0 -- -- 46
2019-06-16 02:00:00 18 11 Nordeste 15 Norte 0 -- -- 45
2019-06-16 01:00:00 18.8 10 Norte 15 Norte 0 -- -- 45
2019-06-16 00:00:00 18.3 10 Norte 15 Norte 0 -- -- 49
2019-06-15 23:00:00 18.7 8 Norte 18 Norte 0 -- -- 49
2019-06-15 22:00:00 21 9 Norte 23 Norte 0 -- -- 40
2019-06-15 21:00:00 22.8 9 Norte 20 Norte 0 -- -- 36
2019-06-15 20:00:00 24.9 9 Norte 22 Nordeste 0 -- -- 32
2019-06-15 19:00:00 26.6 8 Norte 22 Norte 0 -- -- 30
2019-06-15 18:00:00 27.4 11 Noroeste 25 Noroeste 0 -- -- 30
2019-06-15 17:00:00 27.7 7 Norte 20 Nordeste 0 -- -- 30
2019-06-15 16:00:00 27.3 9 Nordeste 21 Sudoeste 0 -- -- 29
2019-06-15 15:00:00 26.4 7 Norte 19 Norte 0 -- -- 31
2019-06-15 14:00:00 25 7 Norte 17 Nordeste 0 -- -- 33
2019-06-15 13:00:00 23.4 6 Noroeste 20 Norte 0 -- -- 34
2019-06-15 12:00:00 21.5 7 Norte 26 Norte 0 -- -- 39
2019-06-15 11:00:00 19.8 11 Norte 23 Norte 0 -- -- 43
2019-06-15 10:00:00 17.2 8 Nordeste 25 Norte 0 -- -- 53
2019-06-15 09:00:00 14.6 18 Norte 32 Norte 0 -- -- 60
2019-06-15 08:00:00 12.1 16 Norte 27 Norte 0 -- -- 68
2019-06-15 07:00:00 10.9 11 Norte 24 Norte 0 -- -- 71
2019-06-15 06:00:00 9.4 9 Nordeste 20 Nordeste 0 -- -- 80
2019-06-15 05:00:00 10 13 Nordeste 22 Norte 0 -- -- 78
2019-06-15 04:00:00 10.6 13 Nordeste 24 Norte 0 -- -- 75
2019-06-15 03:00:00 11.9 10 Norte 34 Norte 0 -- -- 68
2019-06-15 02:00:00 12.5 18 Norte 39 Norte 0 -- -- 65
2019-06-15 01:00:00 12.2 18 Norte 33 Norte 0 -- -- 68
2019-06-15 00:00:00 12.6 20 Norte 38 Norte 0 -- -- 70
2019-06-14 23:00:00 13.3 16 Norte 35 Nordeste 0 -- -- 68
2019-06-14 22:00:00 14.2 11 Norte 27 Norte 0 -- -- 63
2019-06-14 21:00:00 15.5 10 Norte 27 Noroeste 0 -- -- 58
2019-06-14 20:00:00 17.4 9 Noroeste 24 Noroeste 0 -- -- 52
2019-06-14 19:00:00 18.9 6 Oeste 24 Nordeste 0 -- -- 45
2019-06-14 18:00:00 19.8 5 Sudoeste 29 Norte 0 -- -- 42
2019-06-14 17:00:00 20.2 7 Sudoeste 34 Oeste 0 -- -- 42
2019-06-14 16:00:00 19 11 Oeste 37 Oeste 0 -- -- 43
2019-06-14 15:00:00 18.8 10 Noroeste 30 Norte 0 -- -- 50
2019-06-14 14:00:00 17.2 12 Oeste 28 Sudoeste 0 -- -- 57
2019-06-14 13:00:00 16.1 9 Sudoeste 36 Sudoeste 0 -- -- 59
2019-06-14 12:00:00 15.7 8 Sudoeste 36 Sudoeste 0 -- -- 60
2019-06-14 11:00:00 14.2 18 Sudoeste 31 Sudoeste 0 -- -- 70
2019-06-14 10:00:00 13 16 Sudoeste 27 Sudoeste 0 -- -- 79
2019-06-14 09:00:00 12.5 6 Sudoeste 19 Sudoeste 0 -- -- 80
2019-06-14 08:00:00 12.3 8 Sudoeste 27 Sudoeste 0 -- -- 78
2019-06-14 07:00:00 12.2 13 Sudoeste 28 Sudoeste 0 -- -- 81
2019-06-14 06:00:00 12.2 15 Sudoeste 26 Oeste 0 -- -- 82
2019-06-14 05:00:00 13.3 11 Sudoeste 27 Sudoeste 0 -- -- 84
2019-06-14 04:00:00 14.6 11 Sudoeste 22 Sudoeste 0 -- -- 78
2019-06-14 03:00:00 15.5 7 Sudoeste 13 Sudoeste 0 -- -- 77
2019-06-14 02:00:00 15.2 0 Calma 8 Sudoeste 0 -- -- 85
2019-06-14 01:00:00 15.4 0 Calma 6 Sur 0 -- -- 88
2019-06-14 00:00:00 16 5 Sudoeste 8 Sudoeste 0 -- -- 88
2019-06-13 23:00:00 16.1 6 Sudoeste 17 Sudoeste 0 -- -- 86
2019-06-13 22:00:00 16.5 10 Sudoeste 13 Sudoeste 0 -- -- 83
2019-06-13 21:00:00 17.5 3 Sudoeste 19 Sur 0 -- -- 77
2019-06-13 20:00:00 18.5 11 Sudoeste 24 Sudoeste 0 -- -- 74
2019-06-13 19:00:00 20.3 14 Sudoeste 27 Sudoeste 0 -- -- 68
2019-06-13 18:00:00 21.1 19 Sudoeste 30 Oeste 0 -- -- 65
2019-06-13 17:00:00 21.2 9 Sudoeste 21 Sudoeste 0 -- -- 64
2019-06-13 16:00:00 21.3 8 Sudoeste 16 Sur 0 -- -- 63
2019-06-13 15:00:00 19.4 6 Sudoeste 16 Sur 0 -- -- 70
2019-06-13 14:00:00 19.5 4 Sur 15 Sudeste 0 -- -- 71
2019-06-13 13:00:00 19.3 8 Sudoeste 21 Sudoeste 0 -- -- 67
2019-06-13 12:00:00 18.5 7 Sudoeste 12 Sudoeste 0 -- -- 70
2019-06-13 11:00:00 17.7 5 Sudoeste 13 Sudoeste 0 -- -- 73
2019-06-13 10:00:00 16.3 3 Sudoeste 9 Sudoeste 0 -- -- 79
2019-06-13 09:00:00 15.5 2 Sudoeste 11 Este 0 -- -- 81
2019-06-13 08:00:00 14.5 3 Noroeste 7 Sudoeste 0 -- -- 84
2019-06-13 07:00:00 14.4 3 Oeste 9 Sudoeste 0 -- -- 83
2019-06-13 06:00:00 14.1 3 Oeste 10 Sur 0 -- -- 81
2019-06-13 05:00:00 13.9 0 Calma 17 Norte 0 -- -- 81
2019-06-13 04:00:00 14.2 2 Oeste 13 Oeste 0 -- -- 80
2019-06-13 03:00:00 14.3 4 Sudoeste 12 Sur 0 -- -- 78
2019-06-13 02:00:00 13.8 3 Sudoeste 7 Sudoeste 0 -- -- 84
2019-06-13 01:00:00 13.9 0 Calma 5 Nordeste 0 -- -- 87
2019-06-13 00:00:00 14.1 3 Norte 10 Noroeste 0 -- -- 88
2019-06-12 23:00:00 14.6 3 Norte 10 Norte 0 -- -- 88
2019-06-12 22:00:00 15.9 4 Nordeste 6 Nordeste 0 -- -- 82
2019-06-12 21:00:00 16.8 5 Sudoeste 17 Sudoeste 0 -- -- 78
2019-06-12 20:00:00 19.3 13 Sudoeste 21 Sudoeste 0 -- -- 69
2019-06-12 19:00:00 21 13 Sudoeste 22 Sudoeste 0 -- -- 63
2019-06-12 18:00:00 22.5 5 Oeste 17 Sudoeste 0 -- -- 56
2019-06-12 17:00:00 22.7 9 Sudoeste 22 Sur 0 -- -- 55
2019-06-12 16:00:00 23.2 8 Sudoeste 25 Este 0 -- -- 53
2019-06-12 15:00:00 23.2 8 Sudoeste 22 Sur 0 -- -- 53
2019-06-12 14:00:00 22.8 6 Sudoeste 22 Oeste 0 -- -- 50
2019-06-12 13:00:00 21.4 7 Norte 21 Nordeste 0 -- -- 59
2019-06-12 12:00:00 20.7 6 Sudoeste 20 Sudoeste 0 -- -- 60
2019-06-12 11:00:00 19.1 6 Oeste 19 Sur 0 -- -- 66
2019-06-12 10:00:00 17.2 7 Sudoeste 17 Oeste 0 -- -- 73
2019-06-12 09:00:00 16 7 Oeste 24 Oeste 0 -- -- 77
2019-06-12 08:00:00 15.4 7 Noroeste 20 Norte 0 -- -- 80
2019-06-12 07:00:00 15.1 5 Sudoeste 15 Sudoeste 0 -- -- 80
2019-06-12 06:00:00 14.5 3 Sudoeste 18 Norte 0 -- -- 78
2019-06-12 05:00:00 14.6 8 Norte 15 Noroeste 0 -- -- 66
2019-06-12 04:00:00 14.5 11 Norte 19 Norte 0 -- -- 71
2019-06-12 03:00:00 14 9 Norte 18 Norte 0 -- -- 76
2019-06-12 02:00:00 14.1 12 Norte 19 Norte 0 -- -- 78
2019-06-12 01:00:00 14.3 9 Nordeste 15 Nordeste 0 -- -- 78
2019-06-12 00:00:00 15.1 8 Nordeste 14 Nordeste 0 -- -- 75
2019-06-11 23:00:00 16.5 9 Norte 26 Norte 0 -- -- 70
2019-06-11 22:00:00 17.9 13 Norte 26 Nordeste 0 -- -- 64
2019-06-11 21:00:00 19.4 10 Norte 30 Norte 0 -- -- 56
2019-06-11 20:00:00 21.2 11 Norte 33 Noroeste 0 -- -- 50
2019-06-11 19:00:00 22.3 12 Noroeste 30 Norte 0 -- -- 47
2019-06-11 18:00:00 23.6 11 Noroeste 36 Norte 0 -- -- 43
2019-06-11 17:00:00 23.1 11 Noroeste 39 Norte 0 -- -- 43
2019-06-11 16:00:00 23.2 10 Noroeste 32 Noroeste 0 -- -- 42
2019-06-11 15:00:00 23 9 Norte 30 Sudoeste 0 -- -- 41
2019-06-11 14:00:00 21.7 13 Norte 28 Norte 0 -- -- 44
2019-06-11 13:00:00 22.6 9 Sur 23 Oeste 0 -- -- 43
2019-06-11 12:00:00 20.9 8 Oeste 23 Sudoeste 0 -- -- 44
2019-06-11 11:00:00 19.7 9 Noroeste 26 Noroeste 0 -- -- 40
2019-06-11 10:00:00 19.8 7 Oeste 21 Sudoeste 0 -- -- 33
2019-06-11 09:00:00 18.5 6 Noroeste 17 Noroeste 0 -- -- 34
2019-06-11 08:00:00 13.6 10 Norte 20 Norte 0 -- -- 56
2019-06-11 07:00:00 12.4 11 Nordeste 19 Nordeste 0 -- -- 68
2019-06-11 06:00:00 12.1 10 Nordeste 17 Norte 0 -- -- 71
2019-06-11 05:00:00 12.4 12 Nordeste 17 Nordeste 0 -- -- 70
2019-06-11 04:00:00 14.1 9 Nordeste 24 Norte 0 -- -- 62
2019-06-11 03:00:00 14.7 6 Nordeste 32 Norte 0 -- -- 56
2019-06-11 02:00:00 14.6 15 Norte 37 Norte 0 -- -- 58
2019-06-11 01:00:00 14.2 13 Norte 26 Norte 0 -- -- 66
2019-06-11 00:00:00 14.6 5 Nordeste 18 Norte 0 -- -- 68
2019-06-10 23:00:00 15.6 12 Norte 22 Norte 0 -- -- 64
2019-06-10 22:00:00 16.9 10 Norte 28 Norte 0 -- -- 57
2019-06-10 21:00:00 18.3 10 Norte 26 Norte 0 -- -- 53
2019-06-10 20:00:00 20.5 10 Noroeste 36 Noroeste 0 -- -- 47
2019-06-10 19:00:00 22 9 Noroeste 31 Noroeste 0 -- -- 45
2019-06-10 18:00:00 23.2 11 Norte 27 Noroeste 0 -- -- 40
2019-06-10 17:00:00 24 8 Norte 29 Noroeste 0 -- -- 34
2019-06-10 16:00:00 23 11 Noroeste 35 Noroeste 0 -- -- 38
2019-06-10 15:00:00 22.6 11 Noroeste 36 Norte 0 -- -- 40
2019-06-10 14:00:00 21.7 11 Noroeste 28 Noroeste 0 -- -- 41
2019-06-10 13:00:00 21 10 Noroeste 30 Oeste 0 -- -- 42
2019-06-10 12:00:00 19.8 11 Noroeste 32 Norte 0 -- -- 47
2019-06-10 11:00:00 19.4 9 Noroeste 22 Noroeste 0 -- -- 48
2019-06-10 10:00:00 17.8 6 Nordeste 18 Norte 0 -- -- 61
2019-06-10 09:00:00 15.7 5 Nordeste 12 Norte 0 -- -- 63
2019-06-10 08:00:00 12.8 10 Nordeste 13 Norte 0 -- -- 73
2019-06-10 07:00:00 12.7 9 Nordeste 14 Norte 0 -- -- 74
2019-06-10 06:00:00 13.2 9 Norte 21 Norte 0 -- -- 74
2019-06-10 05:00:00 14.3 12 Norte 29 Norte 0 -- -- 69
2019-06-10 04:00:00 13.9 10 Nordeste 24 Norte 0 -- -- 66
2019-06-10 03:00:00 14.7 10 Nordeste 22 Norte 0 -- -- 64
2019-06-10 02:00:00 16.4 13 Norte 29 Oeste 0 -- -- 58
2019-06-10 01:00:00 16.2 8 Norte 28 Norte 0 -- -- 55
2019-06-10 00:00:00 15.7 13 Norte 40 Norte 0 -- -- 53
2019-06-09 23:00:00 15.7 17 Norte 32 Norte 0 -- -- 51
2019-06-09 22:00:00 17.1 18 Norte 40 Norte 0 -- -- 41
2019-06-09 21:00:00 19 10 Norte 29 Nordeste 0 -- -- 37
2019-06-09 20:00:00 21.5 8 Noroeste 26 Norte 0 -- -- 34
2019-06-09 19:00:00 23.4 9 Sudoeste 23 Oeste 0 -- -- 31
2019-06-09 18:00:00 24 8 Oeste 23 Oeste 0 -- -- 34
2019-06-09 17:00:00 24 9 Oeste 33 Sudoeste 0 -- -- 41
2019-06-09 16:00:00 23.3 13 Oeste 35 Norte 0 -- -- 45
2019-06-09 15:00:00 22.6 14 Oeste 34 Oeste 0 -- -- 49
2019-06-09 14:00:00 22.9 7 Noroeste 29 Sudoeste 0 -- -- 48
2019-06-09 13:00:00 21.4 10 Oeste 23 Oeste 0 -- -- 60
2019-06-09 12:00:00 19.2 2 Sur 16 Sudoeste 0 -- -- 69
2019-06-09 11:00:00 17.8 4 Sudoeste 10 Sudoeste 0 -- -- 77
2019-06-09 10:00:00 16.9 3 Sudoeste 6 Sudoeste 0 -- -- 79
2019-06-09 09:00:00 15.6 2 Sudoeste 9 Sudoeste 0 -- -- 91
2019-06-09 08:00:00 14.9 2 Sudoeste 8 Sudoeste 0 -- -- 93
2019-06-09 07:00:00 14.5 4 Sudoeste 9 Oeste 0 -- -- 91
2019-06-09 06:00:00 14.5 0 Calma 9 Norte 0 -- -- 90
2019-06-09 05:00:00 14.8 0 Calma 7 Sudoeste 0 -- -- 88
2019-06-09 04:00:00 15.1 3 Sudoeste 5 Sudoeste 0 -- -- 85
2019-06-09 03:00:00 15.5 2 Sur 5 Sur 0 -- -- 82
2019-06-09 02:00:00 15.5 0 Calma 5 Sudeste 0 -- -- 79
2019-06-09 01:00:00 15.8 5 Norte 8 Nordeste 0 -- -- 78
2019-06-09 00:00:00 16 0 Calma 5 Sudoeste 0 -- -- 75
2019-06-08 23:00:00 16.7 2 Sur 5 Sudoeste 0 -- -- 69
2019-06-08 22:00:00 17.4 3 Sur 11 Este 0 -- -- 69
2019-06-08 21:00:00 19.5 5 Sudoeste 16 Sudoeste 0 -- -- 56
2019-06-08 20:00:00 21.7 5 Sudoeste 15 Sur 0 -- -- 53
2019-06-08 19:00:00 23 7 Sur 21 Sudeste 0 -- -- 50
2019-06-08 18:00:00 23.9 7 Sudoeste 18 Este 0 -- -- 48
2019-06-08 17:00:00 23.7 6 Oeste 20 Oeste 0 -- -- 45
2019-06-08 16:00:00 25.2 7 Sudoeste 21 Nordeste 0 -- -- 38
2019-06-08 15:00:00 24.3 9 Sudoeste 24 Sudoeste 0 -- -- 40
2019-06-08 14:00:00 24.8 6 Sudoeste 18 Sudeste 0 -- -- 40
2019-06-08 13:00:00 24.5 6 Sur 19 Sudoeste 0 -- -- 41
2019-06-08 12:00:00 22.9 7 Sudoeste 18 Oeste 0 -- -- 39
2019-06-08 11:00:00 22 6 Sudoeste 10 Sudoeste 0 -- -- 38
2019-06-08 10:00:00 22 3 Sudoeste 5 Sudoeste 0 -- -- 37
2019-06-08 09:00:00 18.3 2 Sur 6 Nordeste 0 -- -- 38
2019-06-08 08:00:00 15.8 6 Nordeste 13 Nordeste 0 -- -- 40
2019-06-08 07:00:00 15.3 10 Nordeste 16 Norte 0 -- -- 39
2019-06-08 06:00:00 16 10 Nordeste 15 Nordeste 0 -- -- 37
2019-06-08 05:00:00 15.1 12 Nordeste 15 Norte 0 -- -- 38
2019-06-08 04:00:00 16.2 11 Nordeste 16 Nordeste 0 -- -- 35
2019-06-08 03:00:00 15.7 9 Norte 16 Norte 0 -- -- 37
2019-06-08 02:00:00 16.2 10 Norte 17 Norte 0 -- -- 36
2019-06-08 01:00:00 16.8 9 Norte 17 Norte 0 -- -- 35
2019-06-08 00:00:00 17.4 10 Norte 20 Norte 0 -- -- 35
2019-06-07 23:00:00 18 8 Norte 18 Norte 0 -- -- 37
2019-06-07 22:00:00 19 10 Nordeste 26 Norte 0 -- -- 35
2019-06-07 21:00:00 20.9 12 Norte 28 Norte 0 -- -- 34
2019-06-07 20:00:00 22.7 9 Norte 26 Norte 0 -- -- 35
2019-06-07 19:00:00 23.7 8 Noroeste 23 Noroeste 0 -- -- 35
2019-06-07 18:00:00 24.7 6 Noroeste 19 Noroeste 0 -- -- 34
2019-06-07 17:00:00 24.2 9 Norte 23 Sudoeste 0 -- -- 32
2019-06-07 16:00:00 23 9 Oeste 28 Norte 0 -- -- 39
2019-06-07 15:00:00 22 9 Norte 26 Nordeste 0 -- -- 50
2019-06-07 14:00:00 21.6 8 Norte 29 Norte 0 -- -- 51
2019-06-07 13:00:00 20.1 10 Noroeste 28 Norte 0 -- -- 56
2019-06-07 12:00:00 19.1 9 Norte 31 Nordeste 0 -- -- 59
2019-06-07 11:00:00 17.2 14 Norte 40 Norte 0 -- -- 72
2019-06-07 10:00:00 15.6 10 Norte 32 Norte 0 -- -- 83
2019-06-07 09:00:00 14.2 5 Noroeste 17 Noroeste 0 -- -- 91
2019-06-07 08:00:00 13.6 5 Noroeste 20 Nordeste 0 -- -- 91
2019-06-07 07:00:00 13.4 5 Sur 18 Nordeste 0 -- -- 89
2019-06-07 06:00:00 13.4 8 Norte 32 Norte 0 -- -- 85
2019-06-07 05:00:00 13.3 10 Norte 31 Norte 0 -- -- 83
2019-06-07 04:00:00 13.1 12 Norte 29 Norte 0 -- -- 83
2019-06-07 03:00:00 12.7 8 Norte 32 Norte 0 -- -- 83
2019-06-07 02:00:00 12.7 15 Norte 38 Norte 0 -- -- 81
2019-06-07 01:00:00 12.9 14 Norte 37 Norte 0 -- -- 78
2019-06-07 00:00:00 13.1 15 Norte 36 Norte 0 -- -- 75
2019-06-06 23:00:00 14.1 12 Norte 33 Noroeste 0 -- -- 61
2019-06-06 22:00:00 15.2 12 Norte 25 Norte 0 -- -- 48
2019-06-06 21:00:00 17.5 10 Norte 22 Nordeste 0 -- -- 34
2019-06-06 20:00:00 20.1 6 Norte 26 Sudoeste 0 -- -- 32
2019-06-06 19:00:00 21.9 10 Oeste 26 Oeste 0 -- -- 33
2019-06-06 18:00:00 23.4 9 Oeste 28 Oeste 0 -- -- 32
2019-06-06 17:00:00 24.6 9 Oeste 33 Sudoeste 0 -- -- 28
2019-06-06 16:00:00 24.8 10 Noroeste 24 Sudoeste 0 -- -- 31
2019-06-06 15:00:00 24.8 10 Sudoeste 29 Sudoeste 0 -- -- 29
2019-06-06 14:00:00 24 10 Sudoeste 23 Noroeste 0 -- -- 31
2019-06-06 13:00:00 22.8 6 Noroeste 15 Noroeste 0 -- -- 31
2019-06-06 12:00:00 21.5 5 Norte 14 Norte 0 -- -- 35
2019-06-06 11:00:00 19.9 5 Norte 12 Norte 0 -- -- 40
2019-06-06 10:00:00 16.6 8 Nordeste 16 Nordeste 0 -- -- 54
2019-06-06 09:00:00 13.1 12 Nordeste 17 Nordeste 0 -- -- 62
2019-06-06 08:00:00 10.3 12 Nordeste 17 Norte 0 -- -- 73
2019-06-06 07:00:00 10.5 12 Norte 19 Norte 0 -- -- 73
2019-06-06 06:00:00 10.4 11 Norte 19 Norte 0 -- -- 76
2019-06-06 05:00:00 11 9 Norte 21 Norte 0 -- -- 75
2019-06-06 04:00:00 11.4 12 Norte 16 Norte 0 -- -- 74
2019-06-06 03:00:00 12.4 11 Norte 24 Nordeste 0 -- -- 69
2019-06-06 02:00:00 13.4 12 Norte 26 Norte 0 -- -- 64
2019-06-06 01:00:00 13.5 8 Nordeste 15 Norte 0 -- -- 67
2019-06-06 00:00:00 13.9 10 Norte 19 Norte 0 -- -- 69
2019-06-05 23:00:00 14.7 12 Norte 30 Norte 0 -- -- 67
2019-06-05 22:00:00 15.6 10 Norte 26 Noroeste 0 -- -- 62
2019-06-05 21:00:00 17.3 9 Noroeste 31 Sudoeste 0 -- -- 54
2019-06-05 20:00:00 19.8 10 Oeste 26 Noroeste 0 -- -- 46
2019-06-05 19:00:00 20.8 10 Noroeste 28 Noroeste 0 -- -- 33
2019-06-05 18:00:00 20.5 11 Noroeste 29 Noroeste 0 -- -- 34
2019-06-05 17:00:00 20 13 Noroeste 32 Noroeste 0 -- -- 37
2019-06-05 16:00:00 19.7 13 Noroeste 33 Noroeste 0 -- -- 41
2019-06-05 15:00:00 19.6 11 Noroeste 34 Noroeste 0 -- -- 39
2019-06-05 14:00:00 18.9 12 Noroeste 33 Oeste 0 -- -- 41
2019-06-05 13:00:00 18.3 12 Noroeste 29 Noroeste 0 -- -- 41
2019-06-05 12:00:00 18.2 7 Sudoeste 21 Sudeste 0 -- -- 44
2019-06-05 11:00:00 16.9 9 Norte 23 Norte 0 -- -- 44
2019-06-05 10:00:00 15.5 6 Norte 23 Norte 0 -- -- 52
2019-06-05 09:00:00 13.2 10 Nordeste 30 Norte 0 -- -- 59
2019-06-05 08:00:00 12.1 23 Norte 41 Norte 0 -- -- 63
2019-06-05 07:00:00 12.5 10 Noroeste 37 Noroeste 0 -- -- 65
2019-06-05 06:00:00 13.1 11 Norte 37 Norte 0 -- -- 71
2019-06-05 05:00:00 13.9 13 Norte 33 Noroeste 0 -- -- 74
2019-06-05 04:00:00 15.3 10 Norte 36 Norte 0 -- -- 76
2019-06-05 03:00:00 15.9 8 Norte 28 Norte 0 -- -- 78
2019-06-05 02:00:00 15.9 9 Norte 23 Nordeste 0 -- -- 83
2019-06-05 01:00:00 16 10 Noroeste 31 Noroeste 0 -- -- 83
2019-06-05 00:00:00 16 5 Norte 19 Norte 0 -- -- 79
2019-06-04 23:00:00 16.6 9 Noroeste 22 Noroeste 0 -- -- 77
2019-06-04 22:00:00 18.7 7 Norte 19 Norte 0 -- -- 66
2019-06-04 21:00:00 20.8 6 Noroeste 22 Oeste 0 -- -- 54
2019-06-04 20:00:00 23 10 Oeste 24 Oeste 0 -- -- 47
2019-06-04 19:00:00 25.2 12 Oeste 33 Noroeste 0 -- -- 43
2019-06-04 18:00:00 27 9 Oeste 32 Oeste 0 -- -- 39
2019-06-04 17:00:00 27.6 12 Oeste 28 Oeste 0 -- -- 37
2019-06-04 16:00:00 27.8 10 Oeste 26 Sudoeste 0 -- -- 39
2019-06-04 15:00:00 27.6 15 Oeste 32 Sudoeste 0 -- -- 37
2019-06-04 14:00:00 27.2 10 Oeste 22 Noroeste 0 -- -- 38
2019-06-04 13:00:00 26.6 6 Oeste 23 Noroeste 0 -- -- 32
2019-06-04 12:00:00 26.1 8 Sudoeste 25 Sudoeste 0 -- -- 33
2019-06-04 11:00:00 25.2 7 Norte 16 Norte 0 -- -- 31
2019-06-04 10:00:00 22.6 6 Nordeste 17 Norte 0 -- -- 33
2019-06-04 09:00:00 19.3 12 Norte 15 Norte 0 -- -- 37
2019-06-04 08:00:00 16.9 9 Norte 15 Nordeste 0 -- -- 37
2019-06-04 07:00:00 16.6 11 Nordeste 13 Nordeste 0 -- -- 44
2019-06-04 06:00:00 16.6 7 Norte 14 Nordeste 0 -- -- 41
2019-06-04 05:00:00 16.8 8 Nordeste 13 Nordeste 0 -- -- 42
2019-06-04 04:00:00 17.5 10 Nordeste 14 Norte 0 -- -- 42
2019-06-04 03:00:00 17.6 10 Nordeste 14 Nordeste 0 -- -- 46
2019-06-04 02:00:00 17.2 13 Nordeste 14 Nordeste 0 -- -- 49
2019-06-04 01:00:00 18.4 8 Nordeste 14 Nordeste 0 -- -- 50
2019-06-04 00:00:00 17.4 0 Calma 5 Nordeste 0 -- -- 53
2019-06-03 23:00:00 17.8 0 Calma 6 Nordeste 0 -- -- 51
2019-06-03 22:00:00 18.6 5 Nordeste 9 Norte 0 -- -- 51
2019-06-03 21:00:00 21 2 Oeste 12 Norte 0 -- -- 49
2019-06-03 20:00:00 23.4 5 Sudoeste 13 Sudoeste 0 -- -- 41
2019-06-03 19:00:00 25 6 Sudoeste 18 Sudoeste 0 -- -- 37
2019-06-03 18:00:00 25.7 10 Sudoeste 21 Sudoeste 0 -- -- 37
2019-06-03 17:00:00 25.7 13 Sudoeste 23 Sudoeste 0 -- -- 41
2019-06-03 16:00:00 26.3 9 Sudoeste 21 Sudoeste 0 -- -- 44
2019-06-03 15:00:00 25 10 Sudoeste 20 Sudoeste 0 -- -- 50
2019-06-03 14:00:00 23.2 8 Sudoeste 18 Sudoeste 0 -- -- 56
2019-06-03 13:00:00 23 9 Sudoeste 18 Sudoeste 0 -- -- 54
2019-06-03 12:00:00 21.3 8 Sudoeste 13 Sur 0 -- -- 58
2019-06-03 11:00:00 19.9 6 Sudoeste 12 Sudoeste 0 -- -- 59
2019-06-03 10:00:00 19.6 3 Sudoeste 6 Sudoeste 0 -- -- 53
2019-06-03 09:00:00 17.9 2 Sur 4 Sur 0 -- -- 40
2019-06-03 08:00:00 16.4 2 Este 9 Nordeste 0 -- -- 39
2019-06-03 07:00:00 17.1 4 Nordeste 9 Nordeste 0 -- -- 38
2019-06-03 06:00:00 17.4 2 Sudoeste 7 Oeste 0 -- -- 36
2019-06-03 05:00:00 17.1 2 Nordeste 9 Norte 0 -- -- 37
2019-06-03 04:00:00 16.8 2 Oeste 8 Sur 0 -- -- 39
2019-06-03 03:00:00 16.8 0 Calma 6 Sudeste 0 -- -- 39
2019-06-03 02:00:00 17.2 2 Sudoeste 6 Oeste 0 -- -- 39
2019-06-03 01:00:00 18 0 Calma 6 Noroeste 0 -- -- 35
2019-06-03 00:00:00 17.6 3 Oeste 8 Sudoeste 0 -- -- 37
2019-06-02 23:00:00 18.3 2 Noroeste 6 Oeste 0 -- -- 34
2019-06-02 22:00:00 18.3 3 Noroeste 10 Nordeste 0 -- -- 38
2019-06-02 21:00:00 20.1 2 Sudoeste 10 Sudoeste 0 -- -- 37
2019-06-02 20:00:00 22.7 8 Sudoeste 18 Sudoeste 0 -- -- 35
2019-06-02 19:00:00 23.7 13 Sudoeste 21 Sudoeste 0 -- -- 35
2019-06-02 18:00:00 26.1 9 Sudoeste 22 Sudoeste 0 -- -- 30
2019-06-02 17:00:00 25 17 Sudoeste 25 Oeste 0 -- -- 36
2019-06-02 16:00:00 25.1 10 Sudoeste 27 Sudoeste 0 -- -- 35
2019-06-02 15:00:00 24.1 12 Sudoeste 24 Sudoeste 0 -- -- 39
2019-06-02 14:00:00 24.4 10 Sudoeste 24 Sudoeste 0 -- -- 34
2019-06-02 13:00:00 23.6 10 Sudoeste 24 Sudoeste 0 -- -- 38
2019-06-02 12:00:00 23.4 6 Sudoeste 14 Sudoeste 0 -- -- 33
2019-06-02 11:00:00 22.1 6 Sudoeste 17 Sudeste 0 -- -- 31
2019-06-02 10:00:00 20.9 4 Sudoeste 11 Nordeste 0 -- -- 34
2019-06-02 09:00:00 18.3 4 Oeste 12 Sur 0 -- -- 38
2019-06-02 08:00:00 16.5 4 Sudoeste 12 Este 0 -- -- 40
2019-06-02 07:00:00 16.7 3 Noroeste 14 Nordeste 0 -- -- 41
2019-06-02 06:00:00 17.1 5 Norte 17 Nordeste 0 -- -- 38
2019-06-02 05:00:00 16.9 3 Oeste 15 Este 0 -- -- 39
2019-06-02 04:00:00 17 6 Sudoeste 17 Sudoeste 0 -- -- 40
2019-06-02 03:00:00 17.3 6 Sudoeste 20 Sudoeste 0 -- -- 38
2019-06-02 02:00:00 17.3 5 Oeste 15 Sur 0 -- -- 37
2019-06-02 01:00:00 17.3 5 Oeste 18 Sudoeste 0 -- -- 37
2019-06-02 00:00:00 17.8 7 Oeste 19 Sudeste 0 -- -- 35
2019-06-01 23:00:00 18.2 6 Sudoeste 20 Nordeste 0 -- -- 33
2019-06-01 22:00:00 18.4 5 Oeste 15 Oeste 0 -- -- 30
2019-06-01 21:00:00 19.8 5 Sudoeste 25 Este 0 -- -- 34
2019-06-01 20:00:00 22.5 7 Sudoeste 17 Sudoeste 0 -- -- 36
2019-06-01 19:00:00 24.1 7 Oeste 18 Oeste 0 -- -- 32
2019-06-01 18:00:00 25.7 7 Sudoeste 21 Sudeste 0 -- -- 29
2019-06-01 17:00:00 25.5 9 Sudoeste 27 Sudeste 0 -- -- 28
2019-06-01 16:00:00 25.5 8 Sudoeste 23 Sur 0 -- -- 28
2019-06-01 15:00:00 24.7 6 Sudoeste 26 Sur 0 -- -- 29
2019-06-01 14:00:00 24.4 10 Sudoeste 23 Sur 0 -- -- 28
2019-06-01 13:00:00 23.3 9 Sudoeste 23 Este 0 -- -- 31
2019-06-01 12:00:00 22.2 9 Sudoeste 26 Noroeste 0 -- -- 32
2019-06-01 11:00:00 21.4 9 Sudoeste 27 Sur 0 -- -- 32
2019-06-01 10:00:00 20.1 6 Sudoeste 18 Este 0 -- -- 36
2019-06-01 09:00:00 17.9 7 Sudoeste 14 Sur 0 -- -- 42
2019-06-01 08:00:00 15.6 6 Oeste 14 Oeste 0 -- -- 46
2019-06-01 07:00:00 15.7 5 Oeste 25 Nordeste 0 -- -- 46
2019-06-01 06:00:00 15.7 4 Sudoeste 12 Oeste 0 -- -- 50
2019-06-01 05:00:00 16.4 2 Oeste 16 Este 0 -- -- 52
2019-06-01 04:00:00 16.9 5 Sudoeste 15 Sudoeste 0 -- -- 52
2019-06-01 03:00:00 16.9 6 Sur 17 Oeste 0 -- -- 53
2019-06-01 02:00:00 17.5 6 Sudoeste 24 Oeste 0 -- -- 52
2019-06-01 01:00:00 17.7 9 Oeste 22 Este 0 -- -- 51
2019-06-01 00:00:00 17.1 4 Sudoeste 20 Noroeste 0 -- -- 54
2019-05-31 23:00:00 17 5 Oeste 16 Sudoeste 0 -- -- 52
2019-05-31 22:00:00 17.4 4 Sudoeste 17 Sudoeste 0 -- -- 50
2019-05-31 21:00:00 18.4 10 Sudoeste 19 Sudoeste 0 -- -- 49
2019-05-31 20:00:00 22.3 9 Sudoeste 25 Sudoeste 0 -- -- 37
2019-05-31 19:00:00 23.9 9 Sudoeste 25 Sudeste 0 -- -- 29
2019-05-31 18:00:00 24.1 9 Sudoeste 26 Sudeste 0 -- -- 31
2019-05-31 17:00:00 24.4 7 Sudoeste 42 Este 0 -- -- 33
2019-05-31 16:00:00 24.3 12 Oeste 28 Sudoeste 0 -- -- 33
2019-05-31 15:00:00 24.1 11 Sudoeste 29 Sudoeste 0 -- -- 30
2019-05-31 14:00:00 23.5 12 Oeste 30 Este 0 -- -- 26
2019-05-31 13:00:00 22.7 10 Sudoeste 32 Sudoeste 0 -- -- 28
2019-05-31 12:00:00 21.4 11 Sudoeste 25 Este 0 -- -- 31
2019-05-31 11:00:00 20.3 9 Oeste 26 Este 0 -- -- 40
2019-05-31 10:00:00 19.3 7 Sudoeste 20 Sur 0 -- -- 39
2019-05-31 09:00:00 17.5 7 Sudoeste 23 Sudeste 0 -- -- 42
2019-05-31 08:00:00 15.9 6 Sudoeste 17 Sur 0 -- -- 45
2019-05-31 07:00:00 15.7 5 Noroeste 17 Norte 0 -- -- 45
2019-05-31 06:00:00 15.7 5 Oeste 21 Sudoeste 0 -- -- 46
2019-05-31 05:00:00 16.1 7 Sudoeste 28 Sudoeste 0 -- -- 43
2019-05-31 04:00:00 16.2 8 Oeste 25 Sudeste 0 -- -- 46
2019-05-31 03:00:00 16.9 9 Oeste 32 Sudeste 0 -- -- 41
2019-05-31 02:00:00 16.9 13 Sudoeste 36 Este 0 -- -- 46
2019-05-31 01:00:00 17.5 11 Sudoeste 26 Oeste 0 -- -- 36
2019-05-31 00:00:00 17.4 10 Oeste 25 Sudoeste 0 -- -- 35
2019-05-30 23:00:00 17.1 11 Sudoeste 33 Sur 0 -- -- 36
2019-05-30 22:00:00 16.9 9 Oeste 32 Este 0 -- -- 36
2019-05-30 21:00:00 17.4 10 Oeste 22 Nordeste 0 -- -- 46
2019-05-30 20:00:00 19.1 9 Oeste 27 Nordeste 0 -- -- 49
2019-05-30 19:00:00 20.1 6 Nordeste 36 Nordeste 0 -- -- 49
2019-05-30 18:00:00 21.1 12 Sudoeste 29 Sur 0 -- -- 48
2019-05-30 17:00:00 21.6 11 Sudoeste 31 Este 0 -- -- 45
2019-05-30 16:00:00 21.8 10 Oeste 31 Sudoeste 0 -- -- 39
2019-05-30 15:00:00 21.6 13 Sudoeste 30 Sudeste 0 -- -- 45
2019-05-30 14:00:00 21.2 13 Sudoeste 27 Oeste 0 -- -- 45
2019-05-30 13:00:00 20.3 12 Oeste 32 Este 0 -- -- 50
2019-05-30 12:00:00 19.5 10 Sudoeste 26 Este 0 -- -- 53
2019-05-30 11:00:00 18.7 8 Oeste 22 Norte 0 -- -- 54
2019-05-30 10:00:00 18.2 8 Sudoeste 23 Sur 0 -- -- 53
2019-05-30 09:00:00 16.5 8 Sudoeste 19 Sudoeste 0 -- -- 56
2019-05-30 08:00:00 15.2 6 Sudoeste 20 Este 0 -- -- 54
2019-05-30 07:00:00 15.1 5 Norte 20 Oeste 0 -- -- 50
2019-05-30 06:00:00 14.4 6 Oeste 23 Sudoeste 0 -- -- 61
2019-05-30 05:00:00 14.8 6 Sudoeste 22 Este 0 -- -- 58
2019-05-30 04:00:00 14.7 5 Oeste 20 Este 0 -- -- 65
2019-05-30 03:00:00 14.9 5 Oeste 21 Este 0 -- -- 65
2019-05-30 02:00:00 15 8 Norte 24 Norte 0 -- -- 66
2019-05-30 01:00:00 15 7 Oeste 19 Este 0 -- -- 63
2019-05-30 00:00:00 15.2 4 Este 24 Sudeste 0 -- -- 61
2019-05-29 23:00:00 15.7 7 Sudoeste 14 Sudoeste 0 -- -- 59
2019-05-29 22:00:00 16.8 3 Noroeste 11 Sudeste 0 -- -- 57
2019-05-29 21:00:00 18.7 3 Sur 16 Sudeste 0 -- -- 49
2019-05-29 20:00:00 21.3 5 Sur 15 Sudeste 0 -- -- 45
2019-05-29 19:00:00 23.3 9 Sudoeste 17 Sudoeste 0 -- -- 42
2019-05-29 18:00:00 24.3 6 Sudoeste 17 Sur 0 -- -- 40
2019-05-29 17:00:00 24.1 7 Sudeste 21 Sur 0 -- -- 40
2019-05-29 16:00:00 24.5 6 Sudoeste 22 Sudoeste 0 -- -- 40
2019-05-29 15:00:00 23.6 9 Sur 30 Este 0 -- -- 40
2019-05-29 14:00:00 23.7 8 Sur 25 Sur 0 -- -- 39
2019-05-29 13:00:00 23.3 5 Sur 19 Oeste 0 -- -- 38
2019-05-29 12:00:00 22.3 5 Sur 16 Sur 0 -- -- 43
2019-05-29 11:00:00 21.5 5 Sudoeste 17 Sur 0 -- -- 49
2019-05-29 10:00:00 20 5 Sur 18 Noroeste 0 -- -- 52
2019-05-29 09:00:00 18.3 4 Oeste 20 Norte 0 -- -- 57
2019-05-29 08:00:00 16.7 3 Oeste 15 Sudeste 0 -- -- 61
2019-05-29 07:00:00 16.6 6 Este 18 Sudeste 0 -- -- 68
2019-05-29 06:00:00 16.1 6 Este 14 Este 0 -- -- 71
2019-05-29 05:00:00 16 3 Nordeste 9 Nordeste 0 -- -- 70
2019-05-29 04:00:00 16.6 2 Sur 4 Sudeste 0 -- -- 73
2019-05-29 03:00:00 17.5 0 Calma 4 Sur 0 -- -- 70
2019-05-29 02:00:00 19.3 0 Calma 9 Nordeste 0 -- -- 62
2019-05-29 01:00:00 20.7 6 Nordeste 10 Nordeste 0 -- -- 50
2019-05-29 00:00:00 21.3 0 Calma 4 Sudoeste 0 -- -- 53
2019-05-28 23:00:00 22.9 4 Nordeste 8 Nordeste 0 -- -- 46
2019-05-28 22:00:00 23.2 0 Calma 5 Sudeste 0 -- -- 44
2019-05-28 21:00:00 25 4 Sur 14 Sudoeste 0 -- -- 42
2019-05-28 20:00:00 27.4 10 Sudoeste 21 Sudoeste 0 -- -- 40
2019-05-28 19:00:00 29.2 12 Sudoeste 23 Sudoeste 0 -- -- 36
2019-05-28 18:00:00 29.6 13 Sudoeste 28 Sudoeste 0 -- -- 39
2019-05-28 17:00:00 29.9 15 Sudoeste 30 Sudoeste 0 -- -- 41
2019-05-28 16:00:00 30.4 11 Sudoeste 32 Sudoeste 0 -- -- 40
2019-05-28 15:00:00 30.1 12 Sudoeste 25 Sudoeste 0 -- -- 37
2019-05-28 14:00:00 30.4 8 Sudoeste 27 Noroeste 0 -- -- 30
2019-05-28 13:00:00 29.3 11 Oeste 21 Sudoeste 0 -- -- 31
2019-05-28 12:00:00 28.9 5 Este 17 Este 0 -- -- 33
2019-05-28 11:00:00 28.2 6 Nordeste 12 Nordeste 0 -- -- 36
2019-05-28 10:00:00 26.4 3 Norte 12 Nordeste 0 -- -- 41
2019-05-28 09:00:00 20.9 10 Nordeste 13 Nordeste 0 -- -- 51
2019-05-28 08:00:00 20.1 10 Nordeste 13 Norte 0 -- -- 49
2019-05-28 07:00:00 19.6 10 Nordeste 13 Nordeste 0 -- -- 50
2019-05-28 06:00:00 18.8 10 Nordeste 15 Nordeste 0 -- -- 51
2019-05-28 05:00:00 18.5 13 Nordeste 17 Norte 0 -- -- 51
2019-05-28 04:00:00 19.5 10 Nordeste 14 Nordeste 0 -- -- 48
2019-05-28 03:00:00 21.4 6 Nordeste 24 Norte 0 -- -- 41
2019-05-28 02:00:00 22.4 10 Norte 23 Norte 0 -- -- 36
2019-05-28 01:00:00 23 6 Norte 21 Norte 0 -- -- 36
2019-05-28 00:00:00 23.1 7 Norte 24 Noroeste 0 -- -- 37